Port Stanley — V7EE9 — position and weather

sailwx.info

Track history (hours):
 
Tides and Currents Weather Stations Pressure Air Temp Water Temp Dewpoint Dewpoint Depression Visibility Wind Speed Wind Dir Waves Ship Positions

Port Stanley

Last reported at 2015-Jul-04 08:33 UTC. Time now 2015-Jul-04 19:05 UTC.
Position N 01°12' E 103°37'.

Length 183 m; draft 8.4 m.

Type: Ship. MMSI: 538090299.

Date/timePositionNaut miles runAvg speedWind from/ knotsBaromVisibWave heightAir tempDewpointWater temp
2015-Jul-04 08:33N 01°12' E 103°37'1111.4
2015-Jul-04 07:33N 01°11' E 103°48'3 2.6
2015-Jul-04 06:30N 01°14' E 103°49'0 0.0
2015-Jul-04 05:30N 01°14' E 103°49'0 0.1
2015-Jul-04 04:16N 01°13' E 103°49'0 0.0
2015-Jul-04 02:28N 01°13' E 103°49'0 0.0
2015-Jul-04 01:30N 01°13' E 103°49'0 0.1
2015-Jul-04 00:30N 01°13' E 103°49'0 0.0
2015-Jul-03 23:18N 01°14' E 103°49'0 0.0
2015-Jul-03 21:18N 01°14' E 103°49'0 0.0
2015-Jul-03 20:30N 01°14' E 103°49'0 0.0
2015-Jul-03 19:18N 01°14' E 103°49'0 0.0
2015-Jul-03 18:30N 01°14' E 103°49'0 0.1
2015-Jul-03 17:24N 01°14' E 103°49'0 0.0
2015-Jul-03 16:30N 01°14' E 103°49'0 0.0
2015-Jul-03 14:24N 01°14' E 103°49'0 0.1
2015-Jul-03 12:30N 01°14' E 103°48'0 0.1
2015-Jul-03 11:18N 01°14' E 103°49'0 0.0
2015-Jul-03 10:10N 01°14' E 103°49'0 0.1
2015-Jul-03 09:33N 01°14' E 103°49'2 2.0
2015-Jul-03 08:34N 01°12' E 103°48'0 0.0
2015-Jul-02 16:28N 01°12' E 103°48'1 1.4
2015-Jul-02 15:33N 01°13' E 103°48'0 0.2
2015-Jul-02 14:22N 01°13' E 103°48'0 0.0
2015-Jul-02 13:28N 01°13' E 103°48'0 0.0
2015-Jul-02 12:28N 01°13' E 103°48'0 0.0
2015-Jul-02 11:16N 01°13' E 103°48'0 0.1
2015-Jul-02 10:22N 01°13' E 103°48'0 0.1
2015-Jul-02 09:28N 01°13' E 103°48'0 0.1
2015-Jul-02 08:28N 01°13' E 103°48'0 0.1
2015-Jul-02 07:28N 01°13' E 103°48'0 0.1
2015-Jul-02 06:28N 01°13' E 103°48'0 0.0
2015-Jul-02 05:28N 01°13' E 103°48'0 0.1
2015-Jul-02 04:22N 01°13' E 103°48'0 0.2
2015-Jul-02 03:28N 01°13' E 103°48'0 0.0
2015-Jul-02 02:29N 01°13' E 103°48'0 0.0
2015-Jul-02 01:29N 01°13' E 103°48'0 0.1
2015-Jul-02 00:29N 01°13' E 103°48'0 0.0
2015-Jul-01 23:29N 01°13' E 103°48'0 0.1
2015-Jul-01 22:29N 01°13' E 103°48'0 0.1
2015-Jul-01 21:29N 01°13' E 103°48'0 0.0
2015-Jul-01 20:28N 01°13' E 103°48'0 0.0
2015-Jul-01 19:29N 01°13' E 103°48'0 0.0
2015-Jul-01 18:30N 01°13' E 103°48'0 0.1
2015-Jul-01 17:24N 01°13' E 103°48'0 0.0
2015-Jul-01 16:30N 01°13' E 103°48'0 0.1
2015-Jul-01 15:30N 01°13' E 103°48'0 0.0
2015-Jul-01 14:12N 01°13' E 103°48'0 0.1
2015-Jul-01 13:22N 01°13' E 103°48'0 0.0
2015-Jul-01 12:24N 01°13' E 103°48'0 0.0
2015-Jul-01 11:30N 01°13' E 103°48'0 0.0
2015-Jul-01 10:30N 01°13' E 103°48'0 0.1
2015-Jul-01 09:30N 01°13' E 103°48'0 0.1
2015-Jul-01 08:30N 01°13' E 103°48'0 0.1
2015-Jul-01 07:30N 01°13' E 103°48'0 0.1
2015-Jul-01 06:18N 01°13' E 103°48'0 0.1
2015-Jul-01 05:28N 01°13' E 103°48'0 0.0
2015-Jul-01 04:30N 01°13' E 103°48'0 0.1
2015-Jul-01 03:30N 01°13' E 103°48'0 0.2
2015-Jul-01 02:30N 01°13' E 103°48'0 0.1
2015-Jun-30 23:18N 01°13' E 103°48'0 0.0
2015-Jun-30 22:12N 01°13' E 103°48'0 0.0
2015-Jun-30 21:28N 01°13' E 103°48'0 0.1
2015-Jun-30 20:28N 01°13' E 103°48'0 0.1
2015-Jun-30 19:30N 01°13' E 103°48'0 0.0
2015-Jun-30 18:30N 01°13' E 103°48'0 0.0
2015-Jun-30 17:31N 01°13' E 103°48'0 0.0
2015-Jun-30 16:28N 01°13' E 103°48'0 0.2
2015-Jun-30 15:25N 01°13' E 103°48'0 0.1
2015-Jun-30 14:25N 01°13' E 103°48'0 0.0
2015-Jun-30 13:29N 01°13' E 103°48'0 0.0
2015-Jun-30 11:25N 01°13' E 103°48'0 0.0
2015-Jun-30 10:31N 01°13' E 103°48'0 0.0
2015-Jun-30 09:13N 01°13' E 103°48'0 0.0
2015-Jun-30 08:32N 01°13' E 103°48'0 0.0
2015-Jun-30 07:14N 01°13' E 103°48'0 0.0
2015-Jun-30 06:26N 01°13' E 103°48'0 0.0
2015-Jun-30 02:26N 01°13' E 103°48'0 0.0
2015-Jun-30 01:08N 01°13' E 103°48'0 0.0
2015-Jun-30 00:32N 01°13' E 103°48'0 0.1
2015-Jun-29 23:32N 01°13' E 103°48'0 0.1
2015-Jun-29 22:32N 01°13' E 103°48'0 0.0
2015-Jun-29 21:32N 01°13' E 103°48'0 0.0
2015-Jun-29 20:32N 01°13' E 103°48'0 0.0
2015-Jun-29 19:32N 01°13' E 103°48'0 0.0
2015-Jun-29 18:32N 01°13' E 103°48'1 1.1
2015-Jun-29 17:34N 01°14' E 103°47'8 7.6
2015-Jun-29 16:32N 01°14' E 103°40'4 4.2
2015-Jun-29 15:33N 01°18' E 103°41'0 0.0
2015-Jun-29 14:29N 01°18' E 103°41'0 0.0
2015-Jun-29 12:28N 01°18' E 103°41'0 0.0
2015-Jun-29 06:14N 01°18' E 103°41'0 0.0
2015-Jun-29 05:33N 01°18' E 103°41'0 0.0
2015-Jun-29 03:28N 01°18' E 103°41'0 0.0
2015-Jun-29 02:15N 01°18' E 103°41'0 0.0
2015-Jun-29 01:27N 01°18' E 103°41'0 0.0
2015-Jun-29 00:14N 01°18' E 103°41'0 0.0
2015-Jun-28 23:28N 01°18' E 103°41'0 0.0
2015-Jun-28 22:16N 01°18' E 103°41'0 0.0
2015-Jun-28 21:33N 01°18' E 103°41'0 0.0
2015-Jun-28 20:15N 01°18' E 103°41'0 0.0
2015-Jun-28 19:28N 01°18' E 103°41'0 0.0
2015-Jun-28 18:10N 01°18' E 103°41'0 0.0
2015-Jun-28 17:30N 01°18' E 103°41'0 0.0
2015-Jun-28 16:24N 01°18' E 103°41'0 0.0
2015-Jun-28 15:29N 01°18' E 103°41'0 0.0
2015-Jun-28 14:12N 01°18' E 103°41'0 0.0
2015-Jun-28 13:11N 01°18' E 103°41'0 0.0
2015-Jun-28 11:33N 01°18' E 103°41'0 0.0
2015-Jun-28 09:33N 01°18' E 103°41'0 0.0
2015-Jun-28 08:32N 01°18' E 103°41'1 0.6
2015-Jun-28 07:33N 01°18' E 103°41'4 3.4
2015-Jun-28 06:32N 01°14' E 103°42'6 6.0
2015-Jun-28 05:33N 01°13' E 103°48'0 0.1
2015-Jun-28 04:33N 01°13' E 103°48'0 0.0
2015-Jun-28 03:27N 01°13' E 103°48'0 0.0
2015-Jun-28 02:25N 01°13' E 103°48'0 0.1
2015-Jun-28 01:33N 01°13' E 103°48'5 5.5
2015-Jun-28 00:33N 01°14' E 103°54'7 7.1
2015-Jun-27 23:33N 01°16' E 104°00'  
Track history (hours):
 
Tides and Currents Weather Stations Pressure Air Temp Water Temp Dewpoint Dewpoint Depression Visibility Wind Speed Wind Dir Waves Ship Positions

Port Stanley

Last reported at 2015-Jul-04 08:33 UTC. Time now 2015-Jul-04 19:05 UTC.
Position N 01°12' E 103°37'.

Length 183 m; draft 8.4 m.

Type: Ship. MMSI: 538090299.

Date/timePositionNaut miles runAvg speedWind from/ knotsBaromVisibWave heightAir tempDewpointWater temp
2015-Jul-04 08:33N 01°12' E 103°37'1111.4
2015-Jul-04 07:33N 01°11' E 103°48'3 2.6
2015-Jul-04 06:30N 01°14' E 103°49'0 0.0
2015-Jul-04 05:30N 01°14' E 103°49'0 0.1
2015-Jul-04 04:16N 01°13' E 103°49'0 0.0
2015-Jul-04 02:28N 01°13' E 103°49'0 0.0
2015-Jul-04 01:30N 01°13' E 103°49'0 0.1
2015-Jul-04 00:30N 01°13' E 103°49'0 0.0
2015-Jul-03 23:18N 01°14' E 103°49'0 0.0
2015-Jul-03 21:18N 01°14' E 103°49'0 0.0
2015-Jul-03 20:30N 01°14' E 103°49'0 0.0
2015-Jul-03 19:18N 01°14' E 103°49'0 0.0
2015-Jul-03 18:30N 01°14' E 103°49'0 0.1
2015-Jul-03 17:24N 01°14' E 103°49'0 0.0
2015-Jul-03 16:30N 01°14' E 103°49'0 0.0
2015-Jul-03 14:24N 01°14' E 103°49'0 0.1
2015-Jul-03 12:30N 01°14' E 103°48'0 0.1
2015-Jul-03 11:18N 01°14' E 103°49'0 0.0
2015-Jul-03 10:10N 01°14' E 103°49'0 0.1
2015-Jul-03 09:33N 01°14' E 103°49'2 2.0
2015-Jul-03 08:34N 01°12' E 103°48'0 0.0
2015-Jul-02 16:28N 01°12' E 103°48'1 1.4
2015-Jul-02 15:33N 01°13' E 103°48'0 0.2
2015-Jul-02 14:22N 01°13' E 103°48'0 0.0
2015-Jul-02 13:28N 01°13' E 103°48'0 0.0
2015-Jul-02 12:28N 01°13' E 103°48'0 0.0
2015-Jul-02 11:16N 01°13' E 103°48'0 0.1
2015-Jul-02 10:22N 01°13' E 103°48'0 0.1
2015-Jul-02 09:28N 01°13' E 103°48'0 0.1
2015-Jul-02 08:28N 01°13' E 103°48'0 0.1
2015-Jul-02 07:28N 01°13' E 103°48'0 0.1
2015-Jul-02 06:28N 01°13' E 103°48'0 0.0
2015-Jul-02 05:28N 01°13' E 103°48'0 0.1
2015-Jul-02 04:22N 01°13' E 103°48'0 0.2
2015-Jul-02 03:28N 01°13' E 103°48'0 0.0
2015-Jul-02 02:29N 01°13' E 103°48'0 0.0
2015-Jul-02 01:29N 01°13' E 103°48'0 0.1
2015-Jul-02 00:29N 01°13' E 103°48'0 0.0
2015-Jul-01 23:29N 01°13' E 103°48'0 0.1
2015-Jul-01 22:29N 01°13' E 103°48'0 0.1
2015-Jul-01 21:29N 01°13' E 103°48'0 0.0
2015-Jul-01 20:28N 01°13' E 103°48'0 0.0
2015-Jul-01 19:29N 01°13' E 103°48'0 0.0
2015-Jul-01 18:30N 01°13' E 103°48'0 0.1
2015-Jul-01 17:24N 01°13' E 103°48'0 0.0
2015-Jul-01 16:30N 01°13' E 103°48'0 0.1
2015-Jul-01 15:30N 01°13' E 103°48'0 0.0
2015-Jul-01 14:12N 01°13' E 103°48'0 0.1
2015-Jul-01 13:22N 01°13' E 103°48'0 0.0
2015-Jul-01 12:24N 01°13' E 103°48'0 0.0
2015-Jul-01 11:30N 01°13' E 103°48'0 0.0
2015-Jul-01 10:30N 01°13' E 103°48'0 0.1
2015-Jul-01 09:30N 01°13' E 103°48'0 0.1
2015-Jul-01 08:30N 01°13' E 103°48'0 0.1
2015-Jul-01 07:30N 01°13' E 103°48'0 0.1
2015-Jul-01 06:18N 01°13' E 103°48'0 0.1
2015-Jul-01 05:28N 01°13' E 103°48'0 0.0
2015-Jul-01 04:30N 01°13' E 103°48'0 0.1
2015-Jul-01 03:30N 01°13' E 103°48'0 0.2
2015-Jul-01 02:30N 01°13' E 103°48'0 0.1
2015-Jun-30 23:18N 01°13' E 103°48'0 0.0
2015-Jun-30 22:12N 01°13' E 103°48'0 0.0
2015-Jun-30 21:28N 01°13' E 103°48'0 0.1
2015-Jun-30 20:28N 01°13' E 103°48'0 0.1
2015-Jun-30 19:30N 01°13' E 103°48'0 0.0
2015-Jun-30 18:30N 01°13' E 103°48'0 0.0
2015-Jun-30 17:31N 01°13' E 103°48'0 0.0
2015-Jun-30 16:28N 01°13' E 103°48'0 0.2
2015-Jun-30 15:25N 01°13' E 103°48'0 0.1
2015-Jun-30 14:25N 01°13' E 103°48'0 0.0
2015-Jun-30 13:29N 01°13' E 103°48'0 0.0
2015-Jun-30 11:25N 01°13' E 103°48'0 0.0
2015-Jun-30 10:31N 01°13' E 103°48'0 0.0
2015-Jun-30 09:13N 01°13' E 103°48'0 0.0
2015-Jun-30 08:32N 01°13' E 103°48'0 0.0
2015-Jun-30 07:14N 01°13' E 103°48'0 0.0
2015-Jun-30 06:26N 01°13' E 103°48'0 0.0
2015-Jun-30 02:26N 01°13' E 103°48'0 0.0
2015-Jun-30 01:08N 01°13' E 103°48'0 0.0
2015-Jun-30 00:32N 01°13' E 103°48'0 0.1
2015-Jun-29 23:32N 01°13' E 103°48'0 0.1
2015-Jun-29 22:32N 01°13' E 103°48'0 0.0
2015-Jun-29 21:32N 01°13' E 103°48'0 0.0
2015-Jun-29 20:32N 01°13' E 103°48'0 0.0
2015-Jun-29 19:32N 01°13' E 103°48'0 0.0
2015-Jun-29 18:32N 01°13' E 103°48'1 1.1
2015-Jun-29 17:34N 01°14' E 103°47'8 7.6
2015-Jun-29 16:32N 01°14' E 103°40'4 4.2
2015-Jun-29 15:33N 01°18' E 103°41'0 0.0
2015-Jun-29 14:29N 01°18' E 103°41'0 0.0
2015-Jun-29 12:28N 01°18' E 103°41'0 0.0
2015-Jun-29 06:14N 01°18' E 103°41'0 0.0
2015-Jun-29 05:33N 01°18' E 103°41'0 0.0
2015-Jun-29 03:28N 01°18' E 103°41'0 0.0
2015-Jun-29 02:15N 01°18' E 103°41'0 0.0
2015-Jun-29 01:27N 01°18' E 103°41'0 0.0
2015-Jun-29 00:14N 01°18' E 103°41'0 0.0
2015-Jun-28 23:28N 01°18' E 103°41'0 0.0
2015-Jun-28 22:16N 01°18' E 103°41'0 0.0
2015-Jun-28 21:33N 01°18' E 103°41'0 0.0
2015-Jun-28 20:15N 01°18' E 103°41'0 0.0
2015-Jun-28 19:28N 01°18' E 103°41'0 0.0
2015-Jun-28 18:10N 01°18' E 103°41'0 0.0
2015-Jun-28 17:30N 01°18' E 103°41'0 0.0
2015-Jun-28 16:24N 01°18' E 103°41'0 0.0
2015-Jun-28 15:29N 01°18' E 103°41'0 0.0
2015-Jun-28 14:12N 01°18' E 103°41'0 0.0
2015-Jun-28 13:11N 01°18' E 103°41'0 0.0
2015-Jun-28 11:33N 01°18' E 103°41'0 0.0
2015-Jun-28 09:33N 01°18' E 103°41'0 0.0
2015-Jun-28 08:32N 01°18' E 103°41'1 0.6
2015-Jun-28 07:33N 01°18' E 103°41'4 3.4
2015-Jun-28 06:32N 01°14' E 103°42'6 6.0
2015-Jun-28 05:33N 01°13' E 103°48'0 0.1
2015-Jun-28 04:33N 01°13' E 103°48'0 0.0
2015-Jun-28 03:27N 01°13' E 103°48'0 0.0
2015-Jun-28 02:25N 01°13' E 103°48'0 0.1
2015-Jun-28 01:33N 01°13' E 103°48'5 5.5
2015-Jun-28 00:33N 01°14' E 103°54'7 7.1
2015-Jun-27 23:33N 01°16' E 104°00'  

Dump ship's entire track history